createdAt,value
2022-12-22T00:02:10.520Z,100.00
2022-12-22T00:05:02.017Z,100.00
2022-12-22T00:07:48.615Z,100.00
2022-12-22T00:10:37.033Z,100.00
2022-12-22T00:13:24.188Z,100.00
2022-12-22T00:16:12.291Z,100.00
2022-12-22T00:18:58.984Z,100.00
2022-12-22T00:21:49.966Z,100.00
2022-12-22T00:24:36.553Z,100.00
2022-12-22T00:27:23.449Z,100.00
2022-12-22T00:30:10.144Z,100.00
2022-12-22T00:32:58.372Z,100.00
2022-12-22T00:35:45.086Z,100.00
2022-12-22T00:38:37.861Z,100.00
2022-12-22T00:41:25.143Z,100.00
2022-12-22T00:44:11.906Z,100.00
2022-12-22T00:47:01.605Z,100.00
2022-12-22T00:49:51.394Z,100.00
2022-12-22T00:52:40.516Z,100.00
2022-12-22T00:55:34.438Z,100.00
2022-12-22T00:58:23.029Z,100.00
2022-12-22T01:01:09.878Z,100.00
2022-12-22T01:03:56.518Z,100.00
2022-12-22T01:06:47.756Z,100.00
2022-12-22T01:09:34.858Z,100.00
2022-12-22T01:12:40.316Z,100.00
2022-12-22T01:15:33.547Z,100.00
2022-12-22T01:18:20.984Z,100.00
2022-12-22T01:21:10.015Z,100.00
2022-12-22T01:23:59.721Z,100.00
2022-12-22T01:26:46.456Z,100.00
2022-12-22T01:29:33.260Z,100.00
2022-12-22T01:32:20.057Z,100.00
2022-12-22T01:35:07.807Z,100.00
2022-12-22T01:37:54.467Z,100.00
2022-12-22T01:40:43.939Z,100.00
2022-12-22T01:43:37.212Z,100.00
2022-12-22T01:46:48.906Z,100.00
2022-12-22T01:49:54.231Z,100.00
2022-12-22T01:52:49.414Z,100.00
2022-12-22T01:55:41.664Z,100.00
2022-12-22T01:58:45.532Z,100.00
2022-12-22T02:01:32.998Z,100.00
2022-12-22T02:04:21.318Z,100.00
2022-12-22T02:07:11.285Z,100.00
2022-12-22T02:10:07.674Z,100.00
2022-12-22T02:13:16.183Z,100.00
2022-12-22T02:16:58.399Z,100.00
2022-12-22T02:20:22.510Z,100.00
2022-12-22T02:23:58.543Z,100.00
2022-12-22T02:26:48.056Z,100.00
2022-12-22T02:29:38.463Z,100.00
2022-12-22T02:32:26.565Z,100.00
2022-12-22T02:35:13.388Z,100.00
2022-12-22T02:38:11.350Z,100.00
2022-12-22T02:41:33.919Z,99.58
2022-12-22T02:44:36.977Z,96.15
2022-12-22T02:47:47.442Z,95.14
2022-12-22T02:50:51.662Z,97.77
2022-12-22T02:53:39.962Z,97.84
2022-12-22T02:56:29.467Z,97.25
2022-12-22T02:59:16.294Z,97.41
2022-12-22T03:02:05.399Z,97.21
2022-12-22T03:04:52.204Z,96.53
2022-12-22T03:07:38.765Z,97.19
2022-12-22T03:10:26.178Z,98.53
2022-12-22T03:13:12.930Z,98.21
2022-12-22T03:15:59.361Z,99.62
2022-12-22T03:18:47.483Z,100.00
2022-12-22T03:21:34.882Z,100.00
2022-12-22T03:24:22.320Z,98.93
2022-12-22T03:26:50.282Z,100.00
2022-12-22T03:29:19.347Z,99.41
2022-12-22T03:31:47.357Z,99.90
2022-12-22T03:34:15.722Z,99.67
2022-12-22T03:36:43.646Z,99.10
2022-12-22T03:39:11.946Z,100.00
2022-12-22T03:41:58.487Z,100.00
2022-12-22T03:44:45.128Z,100.00
2022-12-22T03:47:13.084Z,100.00
2022-12-22T03:49:41.573Z,100.00
2022-12-22T03:52:09.451Z,100.00
2022-12-22T03:54:38.878Z,100.00
2022-12-22T03:57:06.772Z,100.00
2022-12-22T03:59:35.126Z,100.00
2022-12-22T04:02:03.308Z,100.00
2022-12-22T04:04:31.882Z,100.00
2022-12-22T04:06:59.780Z,100.00
2022-12-22T04:09:29.620Z,100.00
2022-12-22T04:12:16.138Z,100.00
2022-12-22T04:14:44.511Z,100.00
2022-12-22T04:17:12.592Z,100.00
2022-12-22T04:19:40.802Z,100.00
2022-12-22T04:22:08.949Z,100.00
2022-12-22T04:24:38.243Z,100.00
2022-12-22T04:27:06.221Z,99.35
2022-12-22T04:29:35.511Z,99.68
2022-12-22T04:32:03.804Z,98.96
2022-12-22T04:34:32.091Z,99.38
2022-12-22T04:37:09.913Z,100.00
2022-12-22T04:39:43.760Z,100.00
2022-12-22T04:42:11.863Z,100.00
2022-12-22T04:44:41.422Z,100.00
2022-12-22T04:47:09.426Z,100.00
2022-12-22T04:49:37.781Z,100.00
2022-12-22T04:52:05.811Z,100.00
2022-12-22T04:54:35.167Z,100.00
2022-12-22T04:57:03.122Z,100.00
2022-12-22T04:59:31.991Z,100.00
2022-12-22T05:02:00.213Z,100.00
2022-12-22T05:04:28.685Z,99.84
2022-12-22T05:06:56.620Z,100.00
2022-12-22T05:09:24.930Z,100.00
2022-12-22T05:11:52.878Z,100.00
2022-12-22T05:14:21.141Z,99.23
2022-12-22T05:16:49.194Z,99.43
2022-12-22T05:19:17.641Z,97.32
2022-12-22T05:21:45.842Z,97.26
2022-12-22T05:24:14.499Z,97.14
2022-12-22T05:26:42.412Z,96.61
2022-12-22T05:29:11.745Z,97.05
2022-12-22T05:31:46.758Z,97.27
2022-12-22T05:34:15.689Z,97.44
2022-12-22T05:36:43.628Z,98.27
2022-12-22T05:39:11.936Z,97.35
2022-12-22T05:41:39.996Z,98.15
2022-12-22T05:44:08.332Z,97.66
2022-12-22T05:46:36.439Z,96.86
2022-12-22T05:49:06.051Z,97.90
2022-12-22T05:51:34.006Z,98.37
2022-12-22T05:54:03.839Z,99.01
2022-12-22T05:56:31.846Z,97.89
2022-12-22T05:59:00.056Z,100.00
2022-12-22T06:01:28.043Z,100.00
2022-12-22T06:04:00.373Z,99.01
2022-12-22T06:06:29.115Z,98.72
2022-12-22T06:08:58.484Z,98.04
2022-12-22T06:11:26.451Z,98.81
2022-12-22T06:13:54.740Z,98.94
2022-12-22T06:16:24.110Z,99.03
2022-12-22T06:18:53.562Z,98.91
2022-12-22T06:21:21.356Z,98.45
2022-12-22T06:23:49.506Z,96.60
2022-12-22T06:26:17.339Z,96.91
2022-12-22T06:28:45.517Z,96.96
2022-12-22T06:31:13.398Z,99.64
2022-12-22T06:33:43.297Z,100.00
2022-12-22T06:36:11.400Z,99.82
2022-12-22T06:38:40.759Z,99.50
2022-12-22T06:41:08.537Z,99.91
2022-12-22T06:43:37.218Z,99.82
2022-12-22T06:46:05.278Z,98.85
2022-12-22T06:48:34.531Z,99.16
2022-12-22T06:51:02.347Z,99.15
2022-12-22T06:53:31.048Z,98.20
2022-12-22T06:55:59.648Z,95.78
2022-12-22T06:58:27.763Z,93.19
2022-12-22T07:00:56.977Z,92.98
2022-12-22T07:03:25.390Z,93.54
2022-12-22T07:05:53.366Z,92.05
2022-12-22T07:08:21.535Z,93.72
2022-12-22T07:10:58.242Z,93.12
2022-12-22T07:13:32.906Z,92.53
2022-12-22T07:16:02.489Z,91.59
2022-12-22T07:18:39.638Z,91.42
2022-12-22T07:21:14.442Z,90.04
2022-12-22T07:23:42.814Z,89.70
2022-12-22T07:26:15.739Z,90.26
2022-12-22T07:28:45.189Z,91.14
2022-12-22T07:31:16.554Z,92.27
2022-12-22T07:33:44.816Z,91.25
2022-12-22T07:36:17.974Z,91.16
2022-12-22T07:38:49.131Z,91.50
2022-12-22T07:41:39.189Z,91.73
2022-12-22T07:44:09.567Z,91.40
2022-12-22T07:46:40.093Z,91.49
2022-12-22T07:49:27.420Z,91.19
2022-12-22T07:51:57.917Z,90.90
2022-12-22T07:54:29.392Z,91.75
2022-12-22T07:56:57.579Z,90.75
2022-12-22T07:59:26.351Z,89.84
2022-12-22T08:01:54.472Z,90.14
2022-12-22T08:04:22.829Z,90.42
2022-12-22T08:06:50.709Z,90.74
2022-12-22T08:09:21.825Z,88.95
2022-12-22T08:11:50.438Z,88.19
2022-12-22T08:14:18.591Z,88.91
2022-12-22T08:16:46.535Z,88.47
2022-12-22T08:19:14.799Z,86.89
2022-12-22T08:21:48.563Z,87.99
2022-12-22T08:24:21.387Z,88.15
2022-12-22T08:26:53.768Z,88.79
2022-12-22T08:29:44.255Z,88.78
2022-12-22T08:32:13.692Z,87.89
2022-12-22T08:34:42.307Z,89.22
2022-12-22T08:37:15.810Z,89.07
2022-12-22T08:39:44.597Z,89.33
2022-12-22T08:42:16.260Z,89.44
2022-12-22T08:44:46.234Z,89.83
2022-12-22T08:47:17.075Z,91.67
2022-12-22T08:49:45.763Z,92.67
2022-12-22T08:52:18.342Z,93.09
2022-12-22T08:54:48.750Z,96.85
2022-12-22T08:57:16.578Z,98.45
2022-12-22T08:59:44.815Z,99.75
2022-12-22T09:02:12.705Z,100.00
2022-12-22T09:04:41.937Z,99.71
2022-12-22T09:07:09.877Z,99.79
2022-12-22T09:09:39.309Z,99.56
2022-12-22T09:12:07.737Z,99.17
2022-12-22T09:14:35.900Z,100.00
2022-12-22T09:17:03.778Z,100.00
2022-12-22T09:19:31.987Z,100.00
2022-12-22T09:21:59.861Z,100.00
2022-12-22T09:24:27.952Z,100.00
2022-12-22T09:26:55.800Z,100.00
2022-12-22T09:29:24.118Z,100.00
2022-12-22T09:31:51.977Z,100.00
2022-12-22T09:34:20.198Z,100.00
2022-12-22T09:36:48.259Z,100.00
2022-12-22T09:39:17.134Z,100.00
2022-12-22T09:41:44.995Z,100.00
2022-12-22T09:44:24.931Z,100.00
2022-12-22T09:46:58.501Z,100.00
2022-12-22T09:49:26.777Z,100.00
2022-12-22T09:51:58.353Z,100.00
2022-12-22T09:54:28.099Z,100.00
2022-12-22T09:56:57.592Z,99.85
2022-12-22T09:59:28.976Z,100.00
2022-12-22T10:02:04.223Z,100.00
2022-12-22T10:04:41.566Z,100.00
2022-12-22T10:07:38.691Z,100.00
2022-12-22T10:10:08.359Z,100.00
2022-12-22T10:12:36.226Z,100.00
2022-12-22T10:15:15.456Z,100.00
2022-12-22T10:17:46.578Z,100.00
2022-12-22T10:20:29.895Z,100.00
2022-12-22T10:23:24.970Z,100.00
2022-12-22T10:29:09.261Z,100.00
2022-12-22T10:31:58.436Z,100.00
2022-12-22T10:34:27.871Z,100.00
2022-12-22T10:37:03.428Z,100.00
2022-12-22T10:39:35.201Z,100.00
2022-12-22T10:42:14.778Z,100.00
2022-12-22T10:44:48.394Z,100.00
2022-12-22T10:47:21.653Z,100.00
2022-12-22T10:52:31.883Z,100.00
2022-12-22T10:55:19.669Z,100.00
2022-12-22T10:57:49.611Z,100.00
2022-12-22T11:00:32.806Z,100.00
2022-12-22T11:03:03.938Z,100.00
2022-12-22T11:05:33.286Z,100.00
2022-12-22T11:08:15.062Z,100.00
2022-12-22T11:11:08.163Z,100.00
2022-12-22T11:13:55.512Z,100.00
2022-12-22T11:16:49.903Z,100.00
2022-12-22T11:19:56.593Z,100.00
2022-12-22T11:22:34.015Z,100.00
2022-12-22T11:25:20.547Z,99.85
2022-12-22T11:28:22.000Z,100.00
2022-12-22T11:30:55.861Z,100.00
2022-12-22T11:33:48.752Z,100.00
2022-12-22T11:36:51.910Z,100.00
2022-12-22T11:39:40.734Z,100.00
2022-12-22T11:42:39.077Z,97.92
2022-12-22T11:45:30.052Z,97.39
2022-12-22T11:48:31.652Z,95.23
2022-12-22T11:51:13.801Z,93.81
2022-12-22T11:53:58.221Z,92.50
2022-12-22T11:56:47.082Z,91.97
2022-12-22T11:59:39.920Z,92.02
2022-12-22T12:02:37.017Z,92.31
2022-12-22T12:05:17.236Z,89.41
2022-12-22T12:07:53.936Z,88.81
2022-12-22T12:10:27.921Z,88.01
2022-12-22T12:13:26.444Z,88.42
2022-12-22T12:16:20.220Z,88.97
2022-12-22T12:19:12.312Z,88.99
2022-12-22T12:21:59.375Z,89.80
2022-12-22T12:24:40.892Z,94.37
2022-12-22T12:27:45.646Z,92.37
2022-12-22T12:33:36.654Z,95.05
2022-12-22T12:36:26.870Z,92.74
2022-12-22T12:39:17.501Z,93.16
2022-12-22T12:41:48.844Z,92.51
2022-12-22T12:44:21.582Z,92.19
2022-12-22T12:46:53.188Z,94.82
2022-12-22T12:49:36.484Z,94.69
2022-12-22T12:52:10.352Z,96.80
2022-12-22T12:54:43.751Z,97.75
2022-12-22T12:57:14.876Z,99.68
2022-12-22T12:59:42.826Z,100.00
2022-12-22T13:02:34.711Z,100.00
2022-12-22T13:05:12.425Z,99.80
2022-12-22T13:08:15.808Z,97.43
2022-12-22T13:10:45.846Z,99.97
2022-12-22T13:13:35.007Z,100.00
2022-12-22T13:16:03.236Z,100.00
2022-12-22T13:18:35.480Z,100.00
2022-12-22T13:26:48.077Z,97.57
2022-12-22T13:29:26.579Z,97.46
2022-12-22T13:32:01.959Z,98.48
2022-12-22T13:35:29.820Z,98.78
2022-12-22T13:37:49.123Z,96.87
2022-12-22T13:40:21.997Z,96.32
2022-12-22T13:43:01.258Z,96.11
2022-12-22T13:45:37.525Z,95.65
2022-12-22T13:48:13.105Z,96.82
2022-12-22T13:51:24.789Z,98.21
2022-12-22T13:54:09.014Z,96.80
2022-12-22T13:56:53.441Z,98.41
2022-12-22T13:59:40.796Z,99.21
2022-12-22T14:02:09.164Z,100.00
2022-12-22T14:04:40.895Z,100.00
2022-12-22T14:07:21.636Z,100.00
2022-12-22T14:09:52.114Z,100.00
2022-12-22T14:12:25.858Z,100.00
2022-12-22T14:14:57.454Z,100.00
2022-12-22T14:17:29.043Z,100.00
2022-12-22T14:20:03.340Z,100.00
2022-12-22T14:22:40.609Z,100.00
2022-12-22T14:25:24.094Z,100.00
2022-12-22T14:27:57.624Z,100.00
2022-12-22T14:30:37.831Z,100.00
2022-12-22T14:33:28.666Z,100.00
2022-12-22T14:36:23.429Z,100.00
2022-12-22T14:38:59.079Z,100.00
2022-12-22T14:41:42.104Z,100.00
2022-12-22T14:44:16.714Z,100.00
2022-12-22T14:46:45.832Z,100.00
2022-12-22T14:49:18.518Z,100.00
2022-12-22T14:52:01.004Z,100.00
2022-12-22T14:54:30.028Z,100.00
2022-12-22T14:57:15.721Z,100.00
2022-12-22T15:00:09.804Z,100.00
2022-12-22T15:02:41.095Z,100.00
2022-12-22T15:05:17.397Z,100.00
2022-12-22T15:08:06.569Z,100.00
2022-12-22T15:10:44.649Z,100.00
2022-12-22T15:13:24.301Z,100.00
2022-12-22T15:15:52.982Z,100.00
2022-12-22T15:18:26.108Z,100.00
2022-12-22T15:20:56.850Z,100.00
2022-12-22T15:23:25.252Z,100.00
2022-12-22T15:25:54.120Z,100.00
2022-12-22T15:28:22.091Z,100.00
2022-12-22T15:30:50.334Z,100.00
2022-12-22T15:33:19.924Z,100.00
2022-12-22T15:35:48.269Z,100.00
2022-12-22T15:38:22.241Z,100.00
2022-12-22T15:40:52.003Z,100.00
2022-12-22T15:43:55.942Z,100.00
2022-12-22T15:46:11.410Z,100.00
2022-12-22T15:48:40.197Z,100.00
2022-12-22T15:51:27.626Z,100.00
2022-12-22T15:53:58.012Z,100.00
2022-12-22T15:56:28.733Z,100.00
2022-12-22T15:58:57.501Z,100.00
2022-12-22T16:01:25.814Z,100.00
2022-12-22T16:03:53.810Z,100.00
2022-12-22T16:06:22.191Z,100.00
2022-12-22T16:08:53.670Z,100.00
2022-12-22T16:11:24.016Z,100.00
2022-12-22T16:13:52.618Z,100.00
2022-12-22T16:16:21.065Z,100.00
2022-12-22T16:18:49.052Z,100.00
2022-12-22T16:21:21.187Z,100.00
2022-12-22T16:23:50.692Z,100.00
2022-12-22T16:26:20.896Z,100.00
2022-12-22T16:28:48.994Z,100.00
2022-12-22T16:31:25.285Z,100.00
2022-12-22T16:33:53.202Z,100.00
2022-12-22T16:36:21.339Z,100.00
2022-12-22T16:38:49.243Z,100.00
2022-12-22T16:41:25.124Z,100.00
2022-12-22T16:46:45.648Z,100.00
2022-12-22T16:49:22.938Z,100.00
2022-12-22T16:51:56.080Z,100.00
2022-12-22T16:54:24.061Z,100.00
2022-12-22T16:56:52.224Z,100.00
2022-12-22T16:59:20.187Z,100.00
2022-12-22T17:01:53.763Z,100.00
2022-12-22T17:04:30.939Z,100.00
2022-12-22T17:07:01.004Z,100.00
2022-12-22T17:09:42.730Z,100.00
2022-12-22T17:12:21.981Z,100.00
2022-12-22T17:14:50.832Z,100.00
2022-12-22T17:17:30.864Z,100.00
2022-12-22T17:19:59.879Z,100.00
2022-12-22T17:22:31.191Z,100.00
2022-12-22T17:25:05.828Z,100.00
2022-12-22T17:27:35.381Z,100.00
2022-12-22T17:30:04.323Z,100.00
2022-12-22T17:32:32.473Z,100.00
2022-12-22T17:35:00.815Z,100.00
2022-12-22T17:37:29.151Z,100.00
2022-12-22T17:40:02.562Z,100.00
2022-12-22T17:42:32.616Z,100.00
2022-12-22T17:45:00.787Z,100.00
2022-12-22T17:47:34.796Z,100.00
2022-12-22T17:50:08.339Z,100.00
2022-12-22T17:52:36.482Z,100.00
2022-12-22T17:55:05.326Z,100.00
2022-12-22T17:57:35.760Z,100.00
2022-12-22T18:00:04.770Z,100.00
2022-12-22T18:02:40.084Z,100.00
2022-12-22T18:05:15.804Z,100.00
2022-12-22T18:07:45.898Z,100.00
2022-12-22T18:10:30.821Z,100.00
2022-12-22T18:13:01.249Z,100.00
2022-12-22T18:15:30.819Z,100.00
2022-12-22T18:18:00.501Z,100.00
2022-12-22T18:20:29.470Z,100.00
2022-12-22T18:23:02.318Z,100.00
2022-12-22T18:25:32.687Z,100.00
2022-12-22T18:28:01.069Z,100.00
2022-12-22T18:30:30.367Z,100.00
2022-12-22T18:32:58.689Z,100.00
2022-12-22T18:35:28.202Z,100.00
2022-12-22T18:37:58.464Z,100.00
2022-12-22T18:40:28.642Z,100.00
2022-12-22T18:42:58.375Z,99.04
2022-12-22T18:45:28.871Z,98.26
2022-12-22T18:47:57.901Z,98.68
2022-12-22T18:50:29.240Z,98.50
2022-12-22T18:53:02.364Z,99.96
2022-12-22T18:55:33.365Z,100.00
2022-12-22T18:58:02.907Z,99.32
2022-12-22T19:00:36.409Z,98.57
2022-12-22T19:03:18.992Z,98.20
2022-12-22T19:05:47.898Z,98.79
2022-12-22T19:08:18.761Z,98.80
2022-12-22T19:11:04.172Z,99.43
2022-12-22T19:13:42.809Z,99.60
2022-12-22T19:16:16.639Z,98.72
2022-12-22T19:18:45.104Z,99.61
2022-12-22T19:21:17.638Z,99.06
2022-12-22T19:23:46.101Z,99.56
2022-12-22T19:26:23.671Z,99.89
2022-12-22T19:29:00.640Z,99.29
2022-12-22T19:31:33.828Z,98.66
2022-12-22T19:34:11.414Z,98.03
2022-12-22T19:36:39.488Z,98.87
2022-12-22T19:39:07.852Z,98.65
2022-12-22T19:41:53.185Z,98.15
2022-12-22T19:44:26.168Z,99.12
2022-12-22T19:46:55.814Z,98.72
2022-12-22T19:49:27.472Z,98.57
2022-12-22T19:51:56.931Z,98.02
2022-12-22T19:54:25.480Z,97.27
2022-12-22T19:56:56.239Z,98.46
2022-12-22T19:59:46.754Z,98.92
2022-12-22T20:02:30.796Z,98.43
2022-12-22T20:05:00.480Z,98.10
2022-12-22T20:07:30.838Z,98.05
2022-12-22T20:10:00.565Z,97.74
2022-12-22T20:12:32.642Z,97.82
2022-12-22T20:15:02.584Z,97.98
2022-12-22T20:17:30.700Z,97.73
2022-12-22T20:19:59.001Z,97.96
2022-12-22T20:22:27.539Z,97.57
2022-12-22T20:24:56.037Z,97.41
2022-12-22T20:27:32.023Z,96.61
2022-12-22T20:30:00.433Z,93.64
2022-12-22T20:32:28.802Z,94.21
2022-12-22T20:34:57.414Z,94.03
2022-12-22T20:37:25.725Z,94.25
2022-12-22T20:39:54.032Z,93.63
2022-12-22T20:42:24.744Z,93.98
2022-12-22T20:45:02.225Z,93.90
2022-12-22T20:47:33.929Z,93.94
2022-12-22T20:50:02.334Z,93.43
2022-12-22T20:52:30.353Z,93.32
2022-12-22T20:54:58.672Z,94.50
2022-12-22T20:57:27.720Z,94.08
2022-12-22T20:59:56.904Z,93.09
2022-12-22T21:02:30.082Z,92.76
2022-12-22T21:04:59.582Z,92.53
2022-12-22T21:07:27.579Z,92.83
2022-12-22T21:09:55.963Z,92.34
2022-12-22T21:12:23.936Z,92.66
2022-12-22T21:14:53.473Z,92.26
2022-12-22T21:17:21.652Z,92.26
2022-12-22T21:19:50.116Z,91.75
2022-12-22T21:22:18.739Z,90.71
2022-12-22T21:24:47.199Z,91.02
2022-12-22T21:27:20.736Z,91.40
2022-12-22T21:29:50.141Z,91.34
2022-12-22T21:32:18.171Z,90.94
2022-12-22T21:34:46.554Z,90.54
2022-12-22T21:37:20.190Z,90.94
2022-12-22T21:39:48.707Z,90.92
2022-12-22T21:42:20.007Z,91.49
2022-12-22T21:44:48.554Z,91.44
2022-12-22T21:47:20.840Z,90.83
2022-12-22T21:49:49.483Z,90.55
2022-12-22T21:52:17.525Z,90.87
2022-12-22T21:54:45.835Z,91.36
2022-12-22T21:57:18.369Z,90.38
2022-12-22T21:59:46.805Z,92.02
2022-12-22T22:02:17.720Z,91.89
2022-12-22T22:04:54.247Z,92.80
2022-12-22T22:07:23.704Z,92.05
2022-12-22T22:09:52.026Z,92.48
2022-12-22T22:12:37.537Z,91.85
2022-12-22T22:15:08.318Z,91.87
2022-12-22T22:17:36.987Z,92.50
2022-12-22T22:20:07.593Z,91.84
2022-12-22T22:22:35.835Z,91.16
2022-12-22T22:25:04.792Z,91.59
2022-12-22T22:27:32.880Z,91.98
2022-12-22T22:30:01.226Z,91.17
2022-12-22T22:32:29.378Z,91.46
2022-12-22T22:34:57.794Z,91.75
2022-12-22T22:37:25.740Z,91.50
2022-12-22T22:39:54.086Z,91.77
2022-12-22T22:42:22.214Z,91.40
2022-12-22T22:44:51.567Z,91.12
2022-12-22T22:47:19.646Z,91.70
2022-12-22T22:49:47.980Z,91.38
2022-12-22T22:52:16.074Z,91.32
2022-12-22T22:54:44.350Z,92.05
2022-12-22T22:57:12.437Z,91.40
2022-12-22T22:59:40.802Z,91.19
2022-12-22T23:02:11.256Z,92.00
2022-12-22T23:04:39.803Z,91.35
2022-12-22T23:07:07.811Z,92.09
2022-12-22T23:09:36.168Z,91.38
2022-12-22T23:12:04.492Z,91.06
2022-12-22T23:14:32.829Z,91.41
2022-12-22T23:17:00.936Z,91.17
2022-12-22T23:19:29.402Z,90.91
2022-12-22T23:21:57.687Z,91.02
2022-12-22T23:24:26.591Z,91.44
2022-12-22T23:26:55.381Z,92.52
2022-12-22T23:29:23.741Z,92.95
2022-12-22T23:31:51.872Z,92.95
2022-12-22T23:34:20.190Z,92.83
2022-12-22T23:36:48.188Z,92.15
2022-12-22T23:39:16.494Z,93.31
2022-12-22T23:41:44.693Z,94.09
2022-12-22T23:44:13.145Z,94.28
2022-12-22T23:46:41.372Z,94.10
2022-12-22T23:49:11.661Z,95.20
2022-12-22T23:51:40.766Z,94.54
2022-12-22T23:54:09.042Z,94.60
2022-12-22T23:56:37.152Z,94.80
2022-12-22T23:59:05.374Z,94.82
